createdAt,value
2019-04-01T00:01:22.099Z,10.00
2019-04-01T00:03:52.506Z,11.03
2019-04-01T00:06:22.645Z,11.37
2019-04-01T00:08:52.666Z,10.13
2019-04-01T00:11:22.921Z,10.20
2019-04-01T00:13:52.954Z,9.67
2019-04-01T00:16:23.165Z,12.83
2019-04-01T00:19:02.957Z,11.53
2019-04-01T00:21:24.820Z,11.20
2019-04-01T00:23:54.796Z,9.60
2019-04-01T00:26:25.892Z,11.30
2019-04-01T00:28:55.912Z,10.37
2019-04-01T00:31:25.992Z,10.13
2019-04-01T00:33:56.294Z,11.40
2019-04-01T00:36:26.440Z,12.07
2019-04-01T00:38:56.495Z,11.60
2019-04-01T00:41:26.594Z,10.83
2019-04-01T00:43:58.913Z,11.93
2019-04-01T00:46:30.267Z,13.47
2019-04-01T00:49:00.426Z,10.90
2019-04-01T00:51:30.569Z,11.83
2019-04-01T00:54:00.634Z,13.67
2019-04-01T00:56:30.601Z,12.57
2019-04-01T00:59:00.540Z,10.37
2019-04-01T01:01:30.553Z,10.43
2019-04-01T01:04:00.694Z,12.70
2019-04-01T01:06:30.637Z,10.90
2019-04-01T01:09:00.694Z,12.67
2019-04-01T01:11:32.049Z,10.63
2019-04-01T01:14:02.292Z,11.07
2019-04-01T01:16:32.339Z,10.67
2019-04-01T01:19:02.334Z,10.30
2019-04-01T01:21:34.478Z,10.03
2019-04-01T01:24:05.301Z,10.23
2019-04-01T01:26:35.379Z,9.73
2019-04-01T01:29:05.455Z,9.37
2019-04-01T01:31:35.511Z,7.93
2019-04-01T01:34:05.629Z,9.43
2019-04-01T01:36:35.824Z,8.20
2019-04-01T01:39:06.056Z,8.20
2019-04-01T01:41:36.094Z,7.50
2019-04-01T01:44:06.182Z,7.80
2019-04-01T01:46:36.219Z,8.97
2019-04-01T01:49:06.145Z,7.50
2019-04-01T01:51:36.105Z,7.03
2019-04-01T01:54:06.294Z,6.77
2019-04-01T01:56:36.333Z,7.27
2019-04-01T01:59:06.331Z,6.97
2019-04-01T02:01:37.391Z,6.90
2019-04-01T02:04:07.350Z,8.37
2019-04-01T02:06:37.473Z,7.30
2019-04-01T02:09:07.688Z,7.57
2019-04-01T02:11:37.645Z,7.93
2019-04-01T02:14:07.653Z,9.27
2019-04-01T02:16:37.673Z,8.73
2019-04-01T02:19:07.805Z,7.43
2019-04-01T02:21:37.868Z,8.70
2019-04-01T02:24:07.945Z,8.47
2019-04-01T02:26:40.014Z,7.77
2019-04-01T02:29:10.090Z,9.00
2019-04-01T02:31:40.794Z,8.37
2019-04-01T02:34:10.926Z,8.70
2019-04-01T02:36:40.985Z,9.10
2019-04-01T02:39:11.043Z,9.10
2019-04-01T02:41:41.117Z,9.63
2019-04-01T02:44:11.022Z,8.60
2019-04-01T02:46:41.186Z,10.10
2019-04-01T02:49:11.265Z,9.10
2019-04-01T02:51:41.279Z,8.80
2019-04-01T02:54:11.185Z,8.47
2019-04-01T02:56:41.250Z,9.10
2019-04-01T02:59:11.286Z,8.40
2019-04-01T03:01:41.345Z,7.73
2019-04-01T03:04:12.085Z,9.00
2019-04-01T03:06:42.097Z,8.47
2019-04-01T03:09:12.136Z,9.10
2019-04-01T03:11:42.265Z,8.73
2019-04-01T03:14:12.268Z,8.97
2019-04-01T03:16:42.357Z,8.87
2019-04-01T03:19:12.391Z,9.07
2019-04-01T03:21:42.385Z,7.53
2019-04-01T03:24:12.475Z,8.47
2019-04-01T03:26:42.793Z,7.97
2019-04-01T03:29:12.738Z,8.77
2019-04-01T03:31:43.806Z,7.43
2019-04-01T03:34:13.778Z,7.83
2019-04-01T03:36:44.055Z,7.47
2019-04-01T03:39:15.122Z,8.17
2019-04-01T03:41:45.257Z,8.67
2019-04-01T03:44:15.482Z,8.63
2019-04-01T03:46:45.535Z,8.77
2019-04-01T03:49:15.618Z,8.37
2019-04-01T03:51:45.718Z,7.63
2019-04-01T03:54:28.192Z,8.43
2019-04-01T03:56:58.173Z,7.33
2019-04-01T03:59:28.530Z,7.77
2019-04-01T04:01:58.836Z,7.27
2019-04-01T04:04:28.914Z,8.03
2019-04-01T04:06:59.120Z,7.23
2019-04-01T04:09:29.337Z,8.23
2019-04-01T04:11:59.478Z,8.57
2019-04-01T04:14:30.572Z,8.20
2019-04-01T04:17:00.672Z,8.97
2019-04-01T04:19:30.808Z,8.77
2019-04-01T04:22:00.893Z,9.70
2019-04-01T04:24:31.005Z,9.67
2019-04-01T04:27:01.075Z,10.65
2019-04-01T04:29:31.287Z,9.60
2019-04-01T04:32:01.305Z,10.33
2019-04-01T04:34:31.408Z,9.90
2019-04-01T04:37:01.493Z,10.57
2019-04-01T04:39:31.714Z,9.60
2019-04-01T04:42:01.806Z,10.23
2019-04-01T04:44:31.826Z,11.10
2019-04-01T04:47:02.048Z,11.97
2019-04-01T04:49:32.185Z,10.47
2019-04-01T04:52:04.632Z,8.50
2019-04-01T04:54:35.986Z,9.00
2019-04-01T04:57:08.073Z,8.83
2019-04-01T04:59:38.263Z,7.53
2019-04-01T05:02:08.217Z,9.40
2019-04-01T05:04:38.251Z,8.90
2019-04-01T05:07:08.331Z,8.20
2019-04-01T05:09:40.037Z,8.27
2019-04-01T05:12:09.947Z,8.20
2019-04-01T05:14:40.030Z,8.47
2019-04-01T05:17:10.110Z,7.67
2019-04-01T05:19:40.457Z,7.77
2019-04-01T05:22:11.317Z,6.97
2019-04-01T05:24:41.495Z,7.63
2019-04-01T05:27:13.878Z,6.80
2019-04-01T05:29:45.381Z,6.23
2019-04-01T05:32:17.823Z,6.43
2019-04-01T05:34:49.636Z,6.40
2019-04-01T05:37:20.024Z,6.53
2019-04-01T05:39:50.240Z,6.03
2019-04-01T05:42:20.504Z,6.43
2019-04-01T05:44:50.727Z,6.53
2019-04-01T05:47:24.504Z,6.50
2019-04-01T05:49:54.629Z,6.50
2019-04-01T05:52:24.688Z,6.80
2019-04-01T05:54:54.686Z,8.03
2019-04-01T05:57:24.689Z,7.53
2019-04-01T05:59:54.834Z,7.90
2019-04-01T06:02:24.910Z,8.57
2019-04-01T06:04:55.027Z,9.50
2019-04-01T06:07:25.040Z,7.70
2019-04-01T06:09:55.163Z,8.03
2019-04-01T06:12:25.318Z,7.90
2019-04-01T06:14:55.707Z,7.57
2019-04-01T06:17:25.987Z,6.53
2019-04-01T06:19:56.161Z,6.27
2019-04-01T06:22:27.968Z,6.20
2019-04-01T06:24:58.729Z,6.40
2019-04-01T06:27:29.269Z,6.60
2019-04-01T06:29:59.789Z,6.13
2019-04-01T06:32:29.993Z,6.63
2019-04-01T06:35:00.281Z,6.37
2019-04-01T06:37:30.537Z,4.77
2019-04-01T06:40:00.934Z,5.53
2019-04-01T06:42:32.255Z,5.40
2019-04-01T06:45:02.416Z,5.17
2019-04-01T06:47:34.004Z,5.17
2019-04-01T06:50:04.674Z,4.90
2019-04-01T06:52:34.759Z,5.77
2019-04-01T06:55:05.070Z,4.57
2019-04-01T06:57:35.408Z,4.65
2019-04-01T07:00:06.654Z,4.43
2019-04-01T07:02:36.930Z,3.90
2019-04-01T07:05:07.345Z,4.28
2019-04-01T07:07:37.529Z,4.03
2019-04-01T07:10:08.808Z,4.30
2019-04-01T07:12:38.988Z,3.57
2019-04-01T07:15:09.668Z,3.43
2019-04-01T07:17:39.789Z,3.00
2019-04-01T07:20:09.898Z,3.72
2019-04-01T07:22:40.148Z,3.13
2019-04-01T07:25:10.773Z,3.80
2019-04-01T07:27:40.869Z,3.15
2019-04-01T07:30:11.467Z,2.87
2019-04-01T07:32:42.006Z,2.80
2019-04-01T07:35:12.197Z,2.97
2019-04-01T07:37:44.005Z,2.98
2019-04-01T07:40:14.259Z,3.72
2019-04-01T07:42:44.732Z,4.47
2019-04-01T07:45:14.894Z,3.40
2019-04-01T07:47:45.276Z,3.02
2019-04-01T07:50:15.622Z,2.70
2019-04-01T07:52:46.270Z,2.98
2019-04-01T07:55:16.469Z,2.67
2019-04-01T07:57:46.683Z,3.02
2019-04-01T08:00:16.960Z,4.12
2019-04-01T08:02:49.006Z,3.35
2019-04-01T08:05:19.845Z,4.03
2019-04-01T08:07:50.244Z,3.10
2019-04-01T08:10:20.388Z,2.98
2019-04-01T08:12:50.727Z,2.80
2019-04-01T08:15:21.488Z,3.00
2019-04-01T08:17:51.739Z,2.75
2019-04-01T08:20:21.886Z,3.15
2019-04-01T08:22:52.020Z,2.30
2019-04-01T08:25:25.071Z,2.80
2019-04-01T08:27:55.157Z,2.58
2019-04-01T08:30:26.039Z,2.70
2019-04-01T08:32:57.315Z,2.30
2019-04-01T08:35:33.312Z,2.72
2019-04-01T08:38:03.647Z,2.92
2019-04-01T08:40:33.748Z,4.65
2019-04-01T08:43:17.243Z,2.87
2019-04-01T08:45:48.747Z,2.40
2019-04-01T08:48:18.845Z,2.77
2019-04-01T08:50:48.970Z,2.20
2019-04-01T08:53:19.600Z,2.75
2019-04-01T08:55:49.841Z,2.40
2019-04-01T08:58:20.390Z,2.70
2019-04-01T09:00:53.401Z,2.20
2019-04-01T09:03:24.768Z,2.40
2019-04-01T09:05:55.198Z,2.35
2019-04-01T09:08:26.487Z,2.00
2019-04-01T09:10:56.787Z,2.20
2019-04-01T09:13:26.935Z,2.47
2019-04-01T09:15:57.287Z,2.15
2019-04-01T09:18:27.340Z,2.37
2019-04-01T09:20:57.356Z,2.58
2019-04-01T09:23:27.392Z,2.52
2019-04-01T09:25:57.512Z,2.60
2019-04-01T09:28:27.548Z,2.25
2019-04-01T09:30:57.587Z,3.00
2019-04-01T09:33:27.747Z,1.92
2019-04-01T09:38:39.269Z,2.52
2019-04-01T09:41:13.011Z,2.35
2019-04-01T09:43:41.078Z,2.65
2019-04-01T09:46:11.249Z,2.27
2019-04-01T09:48:41.325Z,3.22
2019-04-01T09:51:11.399Z,3.00
2019-04-01T09:53:41.780Z,2.15
2019-04-01T09:56:12.015Z,2.12
2019-04-01T09:58:44.212Z,2.30
2019-04-01T10:01:14.452Z,2.30
2019-04-01T10:03:46.121Z,1.50
2019-04-01T10:06:16.145Z,2.05
2019-04-01T10:08:46.196Z,1.75
2019-04-01T10:11:16.186Z,1.80
2019-04-01T10:13:46.212Z,1.87
2019-04-01T10:16:16.295Z,1.90
2019-04-01T10:18:46.322Z,1.62
2019-04-01T10:21:16.380Z,1.50
2019-04-01T10:23:46.645Z,1.85
2019-04-01T10:26:16.712Z,1.60
2019-04-01T10:28:46.708Z,1.62
2019-04-01T10:31:16.933Z,1.57
2019-04-01T10:33:47.861Z,1.60
2019-04-01T10:36:18.006Z,1.50
2019-04-01T10:38:48.065Z,2.05
2019-04-01T10:41:18.297Z,1.50
2019-04-01T10:43:48.348Z,1.07
2019-04-01T10:46:22.530Z,1.52
2019-04-01T10:48:54.856Z,1.40
2019-04-01T10:51:25.081Z,1.52
2019-04-01T10:53:55.293Z,1.37
2019-04-01T10:56:26.092Z,1.70
2019-04-01T10:58:56.242Z,1.22
2019-04-01T11:01:26.297Z,1.42
2019-04-01T11:03:58.362Z,1.30
2019-04-01T11:06:28.649Z,1.00
2019-04-01T11:08:58.945Z,1.32
2019-04-01T11:11:30.027Z,1.00
2019-04-01T11:14:01.073Z,0.95
2019-04-01T11:16:31.883Z,1.17
2019-04-01T11:19:02.146Z,1.00
2019-04-01T11:21:33.156Z,0.90
2019-04-01T11:24:07.463Z,1.20
2019-04-01T11:26:36.761Z,1.05
2019-04-01T11:29:06.895Z,1.00
2019-04-01T11:31:36.945Z,0.80
2019-04-01T11:34:07.208Z,1.50
2019-04-01T11:36:37.454Z,1.17
2019-04-01T11:39:08.323Z,1.57
2019-04-01T11:41:38.564Z,3.50
2019-04-01T11:44:08.954Z,3.00
2019-04-01T11:46:38.988Z,2.22
2019-04-01T11:49:09.118Z,2.47
2019-04-01T11:51:40.148Z,1.52
2019-04-01T11:54:10.703Z,1.57
2019-04-01T11:56:41.519Z,1.77
2019-04-01T11:59:12.004Z,1.98
2019-04-01T12:01:42.248Z,1.62
2019-04-01T12:04:12.305Z,1.17
2019-04-01T12:06:42.405Z,1.30
2019-04-01T12:09:12.615Z,1.45
2019-04-01T12:11:42.693Z,1.20
2019-04-01T12:14:12.852Z,1.22
2019-04-01T12:16:43.584Z,1.85
2019-04-01T12:19:24.766Z,1.42
2019-04-01T12:22:08.557Z,1.55
2019-04-01T12:24:49.362Z,1.57
2019-04-01T12:27:31.832Z,1.35
2019-04-01T12:30:04.915Z,1.52
2019-04-01T12:32:40.044Z,1.47
2019-04-01T12:35:20.396Z,2.00
2019-04-01T12:37:54.504Z,1.35
2019-04-01T12:40:31.808Z,1.27
2019-04-01T12:43:03.971Z,1.80
2019-04-01T12:45:49.663Z,1.32
2019-04-01T12:48:21.064Z,1.40
2019-04-01T12:50:51.075Z,1.47
2019-04-01T12:53:21.136Z,1.60
2019-04-01T12:55:51.299Z,2.00
2019-04-01T12:58:24.964Z,1.90
2019-04-01T13:00:53.024Z,2.50
2019-04-01T13:03:23.024Z,1.27
2019-04-01T13:05:53.264Z,1.40
2019-04-01T13:08:24.220Z,1.27
2019-04-01T13:10:56.460Z,1.50
2019-04-01T13:13:26.697Z,1.57
2019-04-01T13:15:56.796Z,1.40
2019-04-01T13:18:26.832Z,2.27
2019-04-01T13:20:56.980Z,1.77
2019-04-01T13:23:27.067Z,1.60
2019-04-01T13:25:57.212Z,1.55
2019-04-01T13:28:27.431Z,1.50
2019-04-01T13:30:58.752Z,1.70
2019-04-01T13:33:30.655Z,1.50
2019-04-01T13:36:01.279Z,1.47
2019-04-01T13:38:32.772Z,1.60
2019-04-01T13:41:04.096Z,1.60
2019-04-01T13:43:34.326Z,1.32
2019-04-01T13:46:05.195Z,1.72
2019-04-01T13:48:35.323Z,1.20
2019-04-01T13:51:05.563Z,2.30
2019-04-01T13:53:35.531Z,1.22
2019-04-01T13:56:10.054Z,1.75
2019-04-01T13:58:39.426Z,1.30
2019-04-01T14:01:15.137Z,1.22
2019-04-01T14:03:47.692Z,1.12
2019-04-01T14:06:19.503Z,1.30
2019-04-01T14:08:51.612Z,1.40
2019-04-01T14:11:22.629Z,1.37
2019-04-01T14:13:54.605Z,1.67
2019-04-01T14:16:25.057Z,1.30
2019-04-01T14:18:56.459Z,1.62
2019-04-01T14:21:26.568Z,1.65
2019-04-01T14:23:58.784Z,1.50
2019-04-01T14:26:30.934Z,1.30
2019-04-01T14:29:02.124Z,2.05
2019-04-01T14:31:32.598Z,3.00
2019-04-01T14:34:06.150Z,4.00
2019-04-01T14:36:37.951Z,2.10
2019-04-01T14:39:08.488Z,2.40
2019-04-01T14:41:38.757Z,1.92
2019-04-01T14:44:08.714Z,1.60
2019-04-01T14:46:38.814Z,1.60
2019-04-01T14:49:08.939Z,1.30
2019-04-01T14:51:39.046Z,0.90
2019-04-01T14:54:09.089Z,1.98
2019-04-01T14:56:39.068Z,1.40
2019-04-01T14:59:10.080Z,1.52
2019-04-01T15:01:40.165Z,1.40
2019-04-01T15:04:10.378Z,1.67
2019-04-01T15:06:40.351Z,1.85
2019-04-01T15:09:11.062Z,2.00
2019-04-01T15:11:42.035Z,1.60
2019-04-01T15:14:12.160Z,1.50
2019-04-01T15:16:42.767Z,1.30
2019-04-01T15:19:13.251Z,1.77
2019-04-01T15:21:47.099Z,2.10
2019-04-01T15:24:15.108Z,1.47
2019-04-01T15:26:45.276Z,1.98
2019-04-01T15:29:15.491Z,1.82
2019-04-01T15:31:45.834Z,1.62
2019-04-01T15:34:19.871Z,1.65
2019-04-01T15:36:55.098Z,1.45
2019-04-01T15:39:30.585Z,1.95
2019-04-01T15:42:05.906Z,1.90
2019-04-01T15:44:49.596Z,1.67
2019-04-01T15:47:22.661Z,1.57
2019-04-01T15:49:55.241Z,1.52
2019-04-01T15:52:29.858Z,1.77
2019-04-01T15:55:04.730Z,1.87
2019-04-01T15:57:42.080Z,1.35
2019-04-01T16:00:15.240Z,1.55
2019-04-01T16:02:48.065Z,2.20
2019-04-01T16:05:30.640Z,1.90
2019-04-01T16:08:02.032Z,1.60
2019-04-01T16:10:39.892Z,1.65
2019-04-01T16:13:14.115Z,1.82
2019-04-01T16:15:45.993Z,1.50
2019-04-01T16:18:20.279Z,1.70
2019-04-01T16:20:54.236Z,1.90
2019-04-01T16:23:31.336Z,1.80
2019-04-01T16:26:03.956Z,2.00
2019-04-01T16:28:35.127Z,1.90
2019-04-01T16:31:07.265Z,2.10
2019-04-01T16:33:38.781Z,3.27
2019-04-01T16:36:08.785Z,1.50
2019-04-01T16:38:38.861Z,1.70
2019-04-01T16:41:08.966Z,2.05
2019-04-01T16:43:39.037Z,1.70
2019-04-01T16:46:09.207Z,1.32
2019-04-01T16:49:00.276Z,1.60
2019-04-01T16:51:45.864Z,1.95
2019-04-01T16:54:20.133Z,1.60
2019-04-01T16:56:51.715Z,1.60
2019-04-01T16:59:28.779Z,1.72
2019-04-01T17:02:01.696Z,2.80
2019-04-01T17:04:34.964Z,2.20
2019-04-01T17:07:06.231Z,2.33
2019-04-01T17:09:41.676Z,2.42
2019-04-01T17:12:12.479Z,2.62
2019-04-01T17:14:53.234Z,2.37
2019-04-01T17:17:26.604Z,2.42
2019-04-01T17:20:03.742Z,2.58
2019-04-01T17:22:36.437Z,2.75
2019-04-01T17:25:08.964Z,2.50
2019-04-01T17:27:43.165Z,2.65
2019-04-01T17:30:23.363Z,2.50
2019-04-01T17:33:03.092Z,4.35
2019-04-01T17:35:36.776Z,3.52
2019-04-01T17:38:08.321Z,3.20
2019-04-01T17:40:48.960Z,3.83
2019-04-01T17:43:23.222Z,4.28
2019-04-01T17:45:55.310Z,4.12
2019-04-01T17:48:29.434Z,4.12
2019-04-01T17:51:10.079Z,4.58
2019-04-01T17:53:52.699Z,4.20
2019-04-01T17:56:24.218Z,4.10
2019-04-01T17:58:54.248Z,4.70
2019-04-01T18:01:24.395Z,5.40
2019-04-01T18:03:54.484Z,5.10
2019-04-01T18:06:44.511Z,5.08
2019-04-01T18:09:22.513Z,6.22
2019-04-01T18:11:59.927Z,6.08
2019-04-01T18:14:35.131Z,6.55
2019-04-01T18:17:07.269Z,6.67
2019-04-01T18:19:38.695Z,7.30
2019-04-01T18:22:11.688Z,7.62
2019-04-01T18:24:45.331Z,12.18
2019-04-01T18:27:15.464Z,12.43
2019-04-01T18:29:45.559Z,15.53
2019-04-01T18:32:15.806Z,17.00
2019-04-01T18:34:46.919Z,17.43
2019-04-01T18:37:17.010Z,17.27
2019-04-01T18:39:48.461Z,19.70
2019-04-01T18:42:18.781Z,19.40
2019-04-01T18:44:57.662Z,19.70
2019-04-01T18:47:34.465Z,19.12
2019-04-01T18:50:06.449Z,19.10
2019-04-01T18:52:38.118Z,20.70
2019-04-01T18:55:08.552Z,19.37
2019-04-01T18:57:38.682Z,16.17
2019-04-01T19:00:10.354Z,15.70
2019-04-01T19:02:42.059Z,17.12
2019-04-01T19:05:12.462Z,17.17
2019-04-01T19:07:44.329Z,13.15
2019-04-01T19:10:14.794Z,14.47
2019-04-01T19:12:44.962Z,13.50
2019-04-01T19:15:15.459Z,15.05
2019-04-01T19:17:45.563Z,15.10
2019-04-01T19:20:16.004Z,17.07
2019-04-01T19:22:55.329Z,17.23
2019-04-01T19:25:26.849Z,18.00
2019-04-01T19:27:57.182Z,17.77
2019-04-01T19:30:27.380Z,18.47
2019-04-01T19:32:57.476Z,18.23
2019-04-01T19:35:27.619Z,20.50
2019-04-01T19:37:57.881Z,18.80
2019-04-01T19:40:27.998Z,19.73
2019-04-01T19:42:59.909Z,18.03
2019-04-01T19:45:30.045Z,18.67
2019-04-01T19:48:00.091Z,17.77
2019-04-01T19:50:31.123Z,21.05
2019-04-01T19:53:02.863Z,17.20
2019-04-01T19:55:34.620Z,18.47
2019-04-01T19:58:05.428Z,16.83
2019-04-01T20:00:36.679Z,18.07
2019-04-01T20:03:06.759Z,18.07
2019-04-01T20:05:36.889Z,19.90
2019-04-01T20:08:06.941Z,19.10
2019-04-01T20:10:37.157Z,18.33
2019-04-01T20:13:07.329Z,19.43
2019-04-01T20:15:37.369Z,19.17
2019-04-01T20:18:07.966Z,19.30
2019-04-01T20:20:41.490Z,20.67
2019-04-01T20:23:11.229Z,21.67
2019-04-01T20:25:41.421Z,20.77
2019-04-01T20:28:12.947Z,22.60
2019-04-01T20:30:43.642Z,21.80
2019-04-01T20:33:17.951Z,21.63
2019-04-01T20:35:46.921Z,21.63
2019-04-01T20:38:16.920Z,20.43
2019-04-01T20:40:47.012Z,21.60
2019-04-01T20:43:16.984Z,20.13
2019-04-01T20:45:47.362Z,22.43
2019-04-01T20:48:17.288Z,20.30
2019-04-01T20:50:47.534Z,20.10
2019-04-01T20:53:19.026Z,20.87
2019-04-01T20:55:50.647Z,20.63
2019-04-01T20:58:21.262Z,20.30
2019-04-01T21:00:51.323Z,21.40
2019-04-01T21:03:21.298Z,22.67
2019-04-01T21:05:53.162Z,25.13
2019-04-01T21:08:24.864Z,26.83
2019-04-01T21:10:54.931Z,24.20
2019-04-01T21:13:24.987Z,24.97
2019-04-01T21:15:55.089Z,26.27
2019-04-01T21:18:25.216Z,27.83
2019-04-01T21:20:55.164Z,29.00
2019-04-01T21:23:25.139Z,28.70
2019-04-01T21:25:55.301Z,29.17
2019-04-01T21:28:25.506Z,29.60
2019-04-01T21:30:55.584Z,28.50
2019-04-01T21:33:25.641Z,28.03
2019-04-01T21:35:55.954Z,29.17
2019-04-01T21:38:26.054Z,28.93
2019-04-01T21:40:56.501Z,30.23
2019-04-01T21:43:27.021Z,30.20
2019-04-01T21:45:57.233Z,27.67
2019-04-01T21:48:28.299Z,27.23
2019-04-01T21:50:58.557Z,26.73
2019-04-01T21:53:31.204Z,27.03
2019-04-01T21:56:01.644Z,26.67
2019-04-01T21:58:31.898Z,28.33
2019-04-01T22:01:02.102Z,28.07
2019-04-01T22:03:34.563Z,28.37
2019-04-01T22:06:04.707Z,28.50
2019-04-01T22:08:36.128Z,28.40
2019-04-01T22:11:07.457Z,27.17
2019-04-01T22:13:37.599Z,28.13
2019-04-01T22:16:07.728Z,25.57
2019-04-01T22:18:37.660Z,27.80
2019-04-01T22:21:20.704Z,27.53
2019-04-01T22:23:50.701Z,25.57
2019-04-01T22:26:20.843Z,26.33
2019-04-01T22:28:51.218Z,25.70
2019-04-01T22:31:21.797Z,24.87
2019-04-01T22:33:53.120Z,24.73
2019-04-01T22:36:30.894Z,25.83
2019-04-01T22:38:55.456Z,27.03
2019-04-01T22:41:25.536Z,26.10
2019-04-01T22:43:55.707Z,26.40
2019-04-01T22:46:25.729Z,25.23
2019-04-01T22:48:55.763Z,24.00
2019-04-01T22:51:25.666Z,26.00
2019-04-01T22:53:55.619Z,25.23
2019-04-01T22:56:27.251Z,26.53
2019-04-01T22:58:57.836Z,25.80
2019-04-01T23:01:28.526Z,25.47
2019-04-01T23:03:58.402Z,25.67
2019-04-01T23:06:28.392Z,25.83
2019-04-01T23:08:59.926Z,24.10
2019-04-01T23:11:30.159Z,23.43
2019-04-01T23:14:00.407Z,27.10
2019-04-01T23:16:30.401Z,25.43
2019-04-01T23:19:00.555Z,27.33
2019-04-01T23:21:31.251Z,25.63
2019-04-01T23:24:01.919Z,25.57
2019-04-01T23:26:32.051Z,24.73
2019-04-01T23:29:02.290Z,25.13
2019-04-01T23:31:32.473Z,24.90
2019-04-01T23:34:02.588Z,25.10
2019-04-01T23:36:32.638Z,24.90
2019-04-01T23:39:02.620Z,24.60
2019-04-01T23:41:32.740Z,26.87
2019-04-01T23:44:02.828Z,25.47
2019-04-01T23:46:32.807Z,24.17
2019-04-01T23:49:02.801Z,25.37
2019-04-01T23:51:32.800Z,25.57
2019-04-01T23:54:02.852Z,24.90
2019-04-01T23:56:32.881Z,24.17
2019-04-01T23:59:03.469Z,25.73
